Time;durP1;ratioP1;P1;durP2;ratioP2;P2;SDS_P1;SDS_P2;PMS_P1;PMS_P2;Temp;Humidity;BMP_temperature;BMP_pressure;BME280_temperature;BME280_humidity;BME280_pressure;Samples;Min_cycle;Max_cycle;Signal;HPM_P1;HPM_P2
2022/08/17 00:00:09;;;;;;;;;;;22.90;99.90;;;;;;5054991;28;20012;-62
2022/08/17 00:03:01;;;;;;;;;;;22.90;99.90;;;;;;5055173;28;21237;-62
2022/08/17 00:05:30;;;;;;;;;;;22.70;99.90;;;;;;5051961;28;19997;-61
2022/08/17 00:07:59;;;;;;;;;;;22.60;99.90;;;;;;5054821;28;20044;-61
2022/08/17 00:10:27;;;;;;;;;;;22.60;99.90;;;;;;5036156;28;20172;-61
2022/08/17 00:12:58;;;;;;;;;;;22.60;99.90;;;;;;5049308;28;19980;-64
2022/08/17 00:15:26;;;;;;;;;;;22.60;99.90;;;;;;5054613;28;19974;-64
2022/08/17 00:17:54;;;;;;;;;;;22.60;99.90;;;;;;5054796;28;20029;-63
2022/08/17 00:20:22;;;;;;;;;;;22.70;99.90;;;;;;5053528;28;19971;-64
2022/08/17 00:23:04;;;;;;;;;;;22.70;99.90;;;;;;5034664;28;19971;-64
2022/08/17 00:25:32;;;;;;;;;;;22.80;99.90;;;;;;5033972;28;20630;-64
2022/08/17 00:28:00;;;;;;;;;;;22.90;99.90;;;;;;5034589;28;19976;-61
2022/08/17 00:30:28;;;;;;;;;;;23.00;99.90;;;;;;5034316;28;20030;-61
2022/08/17 00:33:17;;;;;;;;;;;23.00;99.90;;;;;;5034479;28;20396;-63
2022/08/17 00:35:46;;;;;;;;;;;23.10;99.90;;;;;;5034556;28;20036;-61
2022/08/17 00:38:15;;;;;;;;;;;23.10;99.90;;;;;;5035399;28;20561;-61
2022/08/17 00:40:44;;;;;;;;;;;23.10;99.90;;;;;;5034048;28;19988;-61
2022/08/17 00:43:13;;;;;;;;;;;23.00;99.90;;;;;;5034320;28;20385;-61
2022/08/17 00:45:42;;;;;;;;;;;23.00;99.90;;;;;;5034155;28;20533;-60
2022/08/17 00:48:09;;;;;;;;;;;23.10;99.90;;;;;;5034236;28;20127;-61
2022/08/17 00:50:59;;;;;;;;;;;23.10;99.90;;;;;;5033817;28;20410;-61
2022/08/17 00:53:29;;;;;;;;;;;23.20;99.90;;;;;;5053598;28;19968;-61
2022/08/17 00:55:58;;;;;;;;;;;23.00;99.90;;;;;;5053272;28;20443;-61
2022/08/17 00:58:26;;;;;;;;;;;23.00;99.90;;;;;;5053510;28;20065;-61
2022/08/17 01:01:04;;;;;;;;;;;23.00;99.90;;;;;;5053924;28;20759;-61
2022/08/17 01:03:32;;;;;;;;;;;22.90;99.90;;;;;;5053504;28;20139;-61
2022/08/17 01:06:02;;;;;;;;;;;22.70;99.90;;;;;;5053916;28;20080;-61
2022/08/17 01:08:31;;;;;;;;;;;22.40;99.90;;;;;;5037443;28;20092;-61
2022/08/17 01:11:01;;;;;;;;;;;22.20;99.90;;;;;;5033373;28;20008;-61
2022/08/17 01:13:31;;;;;;;;;;;22.10;99.90;;;;;;5034255;28;20007;-61
2022/08/17 01:16:09;;;;;;;;;;;22.00;99.90;;;;;;5033823;28;20621;-61
2022/08/17 01:18:37;;;;;;;;;;;21.90;99.90;;;;;;5033674;28;20010;-61
2022/08/17 01:21:07;;;;;;;;;;;21.80;99.90;;;;;;5039242;28;20213;-61
2022/08/17 01:23:37;;;;;;;;;;;21.70;99.90;;;;;;5033965;28;19967;-61
2022/08/17 01:26:05;;;;;;;;;;;21.70;99.90;;;;;;5035405;28;19986;-61
2022/08/17 01:28:34;;;;;;;;;;;21.60;99.90;;;;;;5053119;28;20038;-61
2022/08/17 01:31:23;;;;;;;;;;;21.60;99.90;;;;;;5033205;28;20440;-61
2022/08/17 01:33:50;;;;;;;;;;;21.50;99.90;;;;;;5033245;28;20141;-61
2022/08/17 01:36:19;;;;;;;;;;;21.50;99.90;;;;;;5044730;28;20359;-60
2022/08/17 01:38:48;;;;;;;;;;;21.40;99.90;;;;;;5052972;28;20119;-60
2022/08/17 01:41:16;;;;;;;;;;;21.40;99.90;;;;;;5052928;28;19980;-60
2022/08/17 01:43:46;;;;;;;;;;;21.50;99.90;;;;;;5053062;28;19979;-61
2022/08/17 01:46:15;;;;;;;;;;;21.60;99.90;;;;;;5052130;28;20081;-60
2022/08/17 01:48:46;;;;;;;;;;;21.70;99.90;;;;;;5049111;28;19971;-60
2022/08/17 01:51:14;;;;;;;;;;;22.00;99.90;;;;;;5039983;28;20003;-61
2022/08/17 01:53:44;;;;;;;;;;;22.10;99.90;;;;;;5052839;28;20447;-61
2022/08/17 01:56:14;;;;;;;;;;;22.10;99.90;;;;;;5052855;28;19975;-61
2022/08/17 01:58:42;;;;;;;;;;;22.00;99.90;;;;;;5052437;28;19994;-61
2022/08/17 02:01:11;;;;;;;;;;;22.00;99.90;;;;;;5052518;28;19975;-61
2022/08/17 02:03:39;;;;;;;;;;;21.90;99.90;;;;;;5043670;28;20055;-62
2022/08/17 02:06:06;;;;;;;;;;;21.80;99.90;;;;;;5036657;28;19991;-61
2022/08/17 02:08:54;;;;;;;;;;;21.70;99.90;;;;;;5052685;28;20023;-62
2022/08/17 02:11:32;;;;;;;;;;;21.60;99.90;;;;;;5052549;28;20020;-61
2022/08/17 02:14:01;;;;;;;;;;;21.50;99.90;;;;;;5052593;28;20579;-62
2022/08/17 02:16:31;;;;;;;;;;;21.60;99.90;;;;;;5052508;28;20711;-61
2022/08/17 02:19:06;;;;;;;;;;;21.70;99.90;;;;;;5051814;28;20003;-62
2022/08/17 02:21:34;;;;;;;;;;;21.70;99.90;;;;;;5046564;28;19970;-61
2022/08/17 02:24:03;;;;;;;;;;;21.60;99.90;;;;;;5052271;28;19999;-61
2022/08/17 02:26:32;;;;;;;;;;;21.60;99.90;;;;;;5052116;28;19970;-61
2022/08/17 02:29:00;;;;;;;;;;;21.60;99.90;;;;;;5052398;28;20122;-61
2022/08/17 02:31:29;;;;;;;;;;;21.50;99.90;;;;;;5051955;28;19980;-61
2022/08/17 02:33:57;;;;;;;;;;;21.50;99.90;;;;;;5052012;28;20450;-61
2022/08/17 02:36:32;;;;;;;;;;;21.40;99.90;;;;;;5050441;28;20009;-61
2022/08/17 02:39:00;;;;;;;;;;;21.70;99.90;;;;;;5038024;28;20507;-60
2022/08/17 02:41:28;;;;;;;;;;;21.70;99.90;;;;;;5031979;28;20437;-61
2022/08/17 02:43:57;;;;;;;;;;;21.90;99.90;;;;;;5032160;28;19970;-61
2022/08/17 02:46:25;;;;;;;;;;;21.90;99.90;;;;;;5031635;28;20041;-61
2022/08/17 02:48:53;;;;;;;;;;;22.00;99.90;;;;;;5031906;28;20020;-61
2022/08/17 02:51:21;;;;;;;;;;;21.80;99.90;;;;;;5031881;28;20021;-61
2022/08/17 02:53:49;;;;;;;;;;;21.70;99.90;;;;;;5032341;28;19985;-61
2022/08/17 02:56:17;;;;;;;;;;;21.80;99.90;;;;;;5031825;28;20463;-61
2022/08/17 02:58:45;;;;;;;;;;;21.90;99.90;;;;;;5031672;28;20023;-61
2022/08/17 03:01:14;;;;;;;;;;;21.80;99.90;;;;;;5032025;28;19983;-61
2022/08/17 03:03:42;;;;;;;;;;;21.60;99.90;;;;;;5032123;28;20355;-61
2022/08/17 03:06:10;;;;;;;;;;;21.40;99.90;;;;;;5031811;28;20016;-61
2022/08/17 03:08:39;;;;;;;;;;;21.40;99.90;;;;;;5031817;28;19973;-61
2022/08/17 03:11:07;;;;;;;;;;;21.40;99.90;;;;;;5035881;28;19963;-61
2022/08/17 03:13:34;;;;;;;;;;;21.30;99.90;;;;;;5051701;28;20516;-61
2022/08/17 03:16:02;;;;;;;;;;;21.30;99.90;;;;;;5051504;28;19966;-61
2022/08/17 03:18:31;;;;;;;;;;;21.30;99.90;;;;;;5051682;28;19963;-61
2022/08/17 03:21:00;;;;;;;;;;;21.50;99.90;;;;;;5051388;28;20334;-61
2022/08/17 03:23:28;;;;;;;;;;;21.70;99.90;;;;;;5051642;28;20085;-61
2022/08/17 03:25:57;;;;;;;;;;;21.70;99.90;;;;;;5051542;28;20800;-61
2022/08/17 03:28:25;;;;;;;;;;;21.90;99.90;;;;;;5043846;28;20806;-61
2022/08/17 03:30:53;;;;;;;;;;;22.00;99.90;;;;;;5051625;28;19977;-61
2022/08/17 03:33:21;;;;;;;;;;;22.20;99.90;;;;;;5051461;28;19980;-61
2022/08/17 03:35:51;;;;;;;;;;;22.40;99.90;;;;;;5051334;28;19971;-61
2022/08/17 03:38:19;;;;;;;;;;;22.50;99.90;;;;;;5051468;28;19978;-61
2022/08/17 03:40:48;;;;;;;;;;;22.50;99.90;;;;;;5051235;28;19982;-61
2022/08/17 03:43:26;;;;;;;;;;;22.40;99.90;;;;;;5051527;28;20479;-61
2022/08/17 03:57:17;;;;;;;;;;;22.80;99.90;;;;;;5031130;28;20697;-61
2022/08/17 03:59:45;;;;;;;;;;;22.70;99.90;;;;;;5035836;28;20013;-61
2022/08/17 04:02:16;;;;;;;;;;;22.40;99.90;;;;;;5039785;28;20673;-61
2022/08/17 04:04:44;;;;;;;;;;;22.40;99.90;;;;;;5045308;28;19973;-61
2022/08/17 04:07:13;;;;;;;;;;;22.50;99.90;;;;;;5035011;28;20304;-61
2022/08/17 04:09:41;;;;;;;;;;;22.50;99.90;;;;;;5036939;28;20692;-61
2022/08/17 04:12:09;;;;;;;;;;;22.30;99.90;;;;;;5054764;28;20109;-61
2022/08/17 04:14:37;;;;;;;;;;;22.00;99.90;;;;;;5054627;28;21013;-61
2022/08/17 04:17:21;;;;;;;;;;;21.80;99.90;;;;;;5054732;28;25077;-61
2022/08/17 04:19:48;;;;;;;;;;;21.70;99.90;;;;;;5050083;28;19987;-61
2022/08/17 04:22:18;;;;;;;;;;;21.60;99.90;;;;;;5068156;28;20045;-61
2022/08/17 04:25:01;;;;;;;;;;;21.60;99.90;;;;;;5054520;28;19976;-61
2022/08/17 04:27:29;;;;;;;;;;;21.50;99.90;;;;;;5054619;28;20141;-61
2022/08/17 04:29:57;;;;;;;;;;;21.50;99.90;;;;;;5060046;28;20124;-61
2022/08/17 04:32:25;;;;;;;;;;;21.40;99.90;;;;;;5069983;28;20321;-62
2022/08/17 04:35:17;;;;;;;;;;;21.40;99.90;;;;;;5047943;28;20366;-62
2022/08/17 04:37:46;;;;;;;;;;;21.40;99.90;;;;;;5044229;28;20031;-61
2022/08/17 04:43:03;;;;;;;;;;;21.50;99.90;;;;;;5043017;28;20107;-61
2022/08/17 04:45:31;;;;;;;;;;;21.60;99.90;;;;;;5044219;28;19988;-62
2022/08/17 04:47:59;;;;;;;;;;;21.80;99.90;;;;;;5045330;28;20029;-61
2022/08/17 04:50:27;;;;;;;;;;;21.80;99.90;;;;;;5045176;28;20033;-61
2022/08/17 04:52:56;;;;;;;;;;;21.90;99.90;;;;;;5043195;28;20003;-63
2022/08/17 04:55:24;;;;;;;;;;;21.90;99.90;;;;;;5044765;28;20046;-62
2022/08/17 04:57:52;;;;;;;;;;;22.00;99.90;;;;;;5044054;28;20701;-62
2022/08/17 05:00:20;;;;;;;;;;;22.10;99.90;;;;;;5045263;28;20719;-62
2022/08/17 05:02:49;;;;;;;;;;;22.00;99.90;;;;;;5043025;28;22328;-62
2022/08/17 05:05:18;;;;;;;;;;;22.00;99.90;;;;;;5044440;28;20914;-61
2022/08/17 05:07:47;;;;;;;;;;;22.10;99.90;;;;;;5044728;28;20130;-62
2022/08/17 05:10:16;;;;;;;;;;;22.30;99.90;;;;;;5043574;28;20421;-62
2022/08/17 05:12:44;;;;;;;;;;;22.20;99.90;;;;;;5042635;28;20042;-61
2022/08/17 05:15:14;;;;;;;;;;;22.20;99.90;;;;;;5044469;28;20000;-61
2022/08/17 05:17:42;;;;;;;;;;;22.10;99.90;;;;;;5044870;28;20627;-62
2022/08/17 05:20:11;;;;;;;;;;;22.10;99.90;;;;;;5044244;28;20684;-61
2022/08/17 05:22:48;;;;;;;;;;;22.10;99.90;;;;;;5042795;28;20004;-61
2022/08/17 05:25:19;;;;;;;;;;;22.10;99.90;;;;;;5044479;28;20843;-61
2022/08/17 05:27:51;;;;;;;;;;;22.00;99.90;;;;;;5044254;28;20015;-62
2022/08/17 05:30:20;;;;;;;;;;;22.00;99.90;;;;;;5043515;28;20016;-61
2022/08/17 05:32:51;;;;;;;;;;;22.10;99.90;;;;;;5042760;28;20455;-61
2022/08/17 05:35:19;;;;;;;;;;;22.10;99.90;;;;;;5044242;28;20116;-62
2022/08/17 05:37:47;;;;;;;;;;;22.20;99.90;;;;;;5044409;28;19975;-62
2022/08/17 05:40:15;;;;;;;;;;;22.20;99.90;;;;;;5043837;28;20810;-61
2022/08/17 05:42:44;;;;;;;;;;;22.30;99.90;;;;;;5042697;28;20047;-62
2022/08/17 05:45:14;;;;;;;;;;;22.30;99.90;;;;;;5043338;28;19977;-61
2022/08/17 05:47:43;;;;;;;;;;;22.20;99.90;;;;;;5043221;28;20753;-61
2022/08/17 05:50:22;;;;;;;;;;;22.20;99.90;;;;;;5043317;28;19978;-62
2022/08/17 05:53:00;;;;;;;;;;;22.20;99.90;;;;;;5042710;28;19969;-61
2022/08/17 05:55:30;;;;;;;;;;;22.20;99.90;;;;;;5043874;28;19979;-62
2022/08/17 05:58:08;;;;;;;;;;;22.20;99.90;;;;;;5041184;28;20060;-61
2022/08/17 06:00:40;;;;;;;;;;;22.20;99.90;;;;;;5043267;28;20057;-61
2022/08/17 06:03:15;;;;;;;;;;;22.10;99.90;;;;;;5037454;28;20355;-62
2022/08/17 06:05:50;;;;;;;;;;;22.10;99.90;;;;;;5068173;28;20439;-62
2022/08/17 06:08:23;;;;;;;;;;;22.10;99.90;;;;;;5072394;28;19988;-61
2022/08/17 06:10:54;;;;;;;;;;;22.10;99.90;;;;;;5053582;28;19965;-62
2022/08/17 06:13:30;;;;;;;;;;;22.10;99.90;;;;;;5052925;28;19970;-65
2022/08/17 06:16:01;;;;;;;;;;;22.10;99.90;;;;;;5056912;28;19986;-65
2022/08/17 06:18:35;;;;;;;;;;;22.30;99.90;;;;;;5045049;28;19975;-66
2022/08/17 06:21:04;;;;;;;;;;;22.30;99.90;;;;;;5031960;28;19972;-66
2022/08/17 06:23:33;;;;;;;;;;;22.30;99.90;;;;;;5035039;28;19979;-66
2022/08/17 06:26:03;;;;;;;;;;;22.40;99.90;;;;;;5051825;28;19980;-65
2022/08/17 06:28:35;;;;;;;;;;;22.40;99.90;;;;;;5052331;28;20020;-66
2022/08/17 06:31:05;;;;;;;;;;;22.40;99.90;;;;;;5051969;28;19995;-66
2022/08/17 06:33:34;;;;;;;;;;;22.50;99.90;;;;;;5037045;28;19973;-65
2022/08/17 06:36:04;;;;;;;;;;;22.60;99.90;;;;;;5030892;28;20073;-65
2022/08/17 06:38:41;;;;;;;;;;;22.70;99.90;;;;;;5032236;28;20079;-65
2022/08/17 06:41:15;;;;;;;;;;;22.70;99.90;;;;;;5033001;28;20363;-65
2022/08/17 06:43:50;;;;;;;;;;;22.70;99.90;;;;;;5032182;28;19995;-65
2022/08/17 06:46:21;;;;;;;;;;;22.60;99.90;;;;;;5032118;28;19983;-65
2022/08/17 06:48:52;;;;;;;;;;;22.50;99.90;;;;;;5031921;28;20433;-65
2022/08/17 06:51:22;;;;;;;;;;;22.50;99.90;;;;;;5031964;28;19992;-65
2022/08/17 06:53:52;;;;;;;;;;;22.50;99.90;;;;;;5032073;28;19982;-65
2022/08/17 06:56:24;;;;;;;;;;;22.50;99.90;;;;;;5031896;28;19974;-65
2022/08/17 06:59:16;;;;;;;;;;;22.40;99.90;;;;;;5031838;28;20503;-65
2022/08/17 07:01:45;;;;;;;;;;;22.50;99.90;;;;;;5031741;28;20203;-65
2022/08/17 07:04:13;;;;;;;;;;;22.50;99.90;;;;;;5031712;28;19977;-66
2022/08/17 07:06:44;;;;;;;;;;;22.50;99.90;;;;;;5031698;28;19973;-65
2022/08/17 07:09:16;;;;;;;;;;;22.50;99.90;;;;;;5031851;28;19969;-65
2022/08/17 07:11:49;;;;;;;;;;;22.50;99.90;;;;;;5031754;28;19975;-65
2022/08/17 07:14:29;;;;;;;;;;;22.50;99.90;;;;;;5032596;28;20037;-65
2022/08/17 07:16:59;;;;;;;;;;;22.50;99.90;;;;;;5031571;28;20084;-65
2022/08/17 07:19:30;;;;;;;;;;;22.50;99.90;;;;;;5031737;28;19986;-65
2022/08/17 07:22:03;;;;;;;;;;;22.50;99.90;;;;;;5031752;28;20498;-65
2022/08/17 07:24:38;;;;;;;;;;;22.50;99.90;;;;;;5031826;28;19984;-65
2022/08/17 07:27:08;;;;;;;;;;;22.50;99.90;;;;;;5031591;28;19977;-65
2022/08/17 07:29:39;;;;;;;;;;;22.50;99.90;;;;;;5032568;28;20070;-65
2022/08/17 07:32:08;;;;;;;;;;;22.40;99.90;;;;;;5031903;28;19970;-65
2022/08/17 07:34:51;;;;;;;;;;;22.40;99.90;;;;;;5034924;28;20766;-65
2022/08/17 07:37:19;;;;;;;;;;;22.40;99.90;;;;;;5035179;28;20923;-65
2022/08/17 07:39:47;;;;;;;;;;;22.40;99.90;;;;;;5035257;28;20539;-63
2022/08/17 07:42:34;;;;;;;;;;;22.30;99.90;;;;;;5035641;28;20052;-63
2022/08/17 07:48:17;;;;;;;;;;;22.30;99.90;;;;;;5036361;28;20938;-63
2022/08/17 07:50:42;;;;;;;;;;;22.30;99.90;;;;;;5035126;28;20059;-63
2022/08/17 07:53:19;;;;;;;;;;;22.30;99.90;;;;;;5035443;28;20447;-63
2022/08/17 07:55:47;;;;;;;;;;;22.30;99.90;;;;;;5035214;28;20264;-64
2022/08/17 07:58:16;;;;;;;;;;;22.30;99.90;;;;;;5034877;28;20144;-63
2022/08/17 08:00:46;;;;;;;;;;;22.30;99.90;;;;;;5046707;28;19971;-64
2022/08/17 08:03:20;;;;;;;;;;;22.40;99.90;;;;;;5042967;28;20013;-64
2022/08/17 08:05:51;;;;;;;;;;;22.30;99.90;;;;;;5035025;28;20335;-64
2022/08/17 08:08:24;;;;;;;;;;;22.20;99.90;;;;;;5034746;28;20008;-65
2022/08/17 08:10:58;;;;;;;;;;;22.20;99.90;;;;;;5035037;28;19990;-66
2022/08/17 08:13:27;;;;;;;;;;;22.10;99.90;;;;;;5034927;28;20033;-65
2022/08/17 08:16:12;;;;;;;;;;;22.10;99.90;;;;;;5034684;28;19964;-67
2022/08/17 08:18:42;;;;;;;;;;;22.00;99.90;;;;;;5044994;28;20347;-65
2022/08/17 08:21:28;;;;;;;;;;;21.90;99.90;;;;;;5035791;28;19996;-66
2022/08/17 08:23:59;;;;;;;;;;;21.80;99.90;;;;;;5034615;28;20410;-66
2022/08/17 08:26:30;;;;;;;;;;;21.80;99.90;;;;;;5034588;28;19991;-66
2022/08/17 08:29:03;;;;;;;;;;;21.90;99.90;;;;;;5034583;28;20650;-66
2022/08/17 08:31:41;;;;;;;;;;;21.90;99.90;;;;;;5034426;28;20026;-66
2022/08/17 08:34:13;;;;;;;;;;;21.90;99.90;;;;;;5034335;28;20550;-66
2022/08/17 08:37:06;;;;;;;;;;;22.00;99.90;;;;;;5034275;28;20056;-66
2022/08/17 08:39:51;;;;;;;;;;;22.10;99.90;;;;;;5034192;28;20261;-66
2022/08/17 08:42:23;;;;;;;;;;;22.30;99.90;;;;;;5034441;28;20016;-64
2022/08/17 08:44:55;;;;;;;;;;;22.30;99.90;;;;;;5033552;28;19974;-64
2022/08/17 08:47:42;;;;;;;;;;;22.30;99.90;;;;;;5034041;28;20484;-64
2022/08/17 08:50:18;;;;;;;;;;;22.20;99.90;;;;;;5034044;28;20448;-64
2022/08/17 08:53:20;;;;;;;;;;;22.20;99.90;;;;;;5033098;28;19969;-64
2022/08/17 08:55:51;;;;;;;;;;;22.20;99.90;;;;;;5034167;28;20029;-64
2022/08/17 08:58:21;;;;;;;;;;;22.30;99.90;;;;;;5033581;28;20029;-64
2022/08/17 09:01:13;;;;;;;;;;;22.20;99.90;;;;;;5033915;28;20004;-64
2022/08/17 09:03:56;;;;;;;;;;;22.30;99.90;;;;;;5034019;28;20001;-64
2022/08/17 09:06:50;;;;;;;;;;;22.30;99.90;;;;;;5033765;28;20013;-64
2022/08/17 09:09:25;;;;;;;;;;;22.30;99.90;;;;;;5033284;28;20659;-64
2022/08/17 09:12:02;;;;;;;;;;;22.30;99.90;;;;;;5033718;28;20037;-64
2022/08/17 09:14:34;;;;;;;;;;;22.20;99.90;;;;;;5032522;28;19994;-64
2022/08/17 09:17:14;;;;;;;;;;;21.90;99.90;;;;;;5033515;28;20417;-64
2022/08/17 09:19:49;;;;;;;;;;;21.60;99.90;;;;;;5033478;28;20093;-64
2022/08/17 09:22:32;;;;;;;;;;;21.50;99.90;;;;;;5033585;28;20044;-64
2022/08/17 09:25:05;;;;;;;;;;;21.40;99.90;;;;;;5033142;28;19996;-64
2022/08/17 09:27:36;;;;;;;;;;;21.50;99.90;;;;;;5033292;28;20082;-64
2022/08/17 09:30:06;;;;;;;;;;;21.50;99.90;;;;;;5033249;28;20696;-64
2022/08/17 09:32:38;;;;;;;;;;;21.60;99.90;;;;;;5033441;28;21147;-64
2022/08/17 09:35:12;;;;;;;;;;;21.70;99.90;;;;;;5033334;28;20454;-64
2022/08/17 09:37:46;;;;;;;;;;;21.90;99.90;;;;;;5033103;28;20008;-64
2022/08/17 09:40:17;;;;;;;;;;;22.10;99.90;;;;;;5032688;28;20030;-64
2022/08/17 09:42:47;;;;;;;;;;;22.50;99.90;;;;;;5033104;28;19970;-64
2022/08/17 09:45:22;;;;;;;;;;;22.70;99.90;;;;;;5032955;28;19997;-64
2022/08/17 09:47:53;;;;;;;;;;;23.00;99.90;;;;;;5032452;28;20035;-66
2022/08/17 09:50:26;;;;;;;;;;;23.30;99.90;;;;;;5032910;28;20017;-67
2022/08/17 09:53:14;;;;;;;;;;;23.70;99.90;;;;;;5033067;28;20085;-67
2022/08/17 09:55:50;;;;;;;;;;;24.10;99.90;;;;;;5032485;28;20464;-67
2022/08/17 09:58:21;;;;;;;;;;;24.30;99.90;;;;;;5130282;22;19977;-67
2022/08/17 10:01:01;;;;;;;;;;;24.50;99.90;;;;;;5051556;28;19971;-67
2022/08/17 10:03:35;;;;;;;;;;;24.60;99.90;;;;;;5052870;28;19993;-67
2022/08/17 10:06:07;;;;;;;;;;;24.80;99.90;;;;;;5052594;28;19982;-67
2022/08/17 10:08:39;;;;;;;;;;;24.90;99.90;;;;;;5052656;28;20474;-66
2022/08/17 10:12:14;;;;;;;;;;;24.90;99.90;;;;;;5034972;28;20775;-66
2022/08/17 10:14:22;;;;;;;;;;;24.90;99.90;;;;;;5032575;28;20034;-66
2022/08/17 10:17:08;;;;;;;;;;;24.70;99.90;;;;;;5032643;28;20159;-66
2022/08/17 10:19:38;;;;;;;;;;;24.60;99.90;;;;;;5032552;28;20047;-66
2022/08/17 10:28:20;;;;;;;;;;;24.50;99.90;;;;;;5032298;28;20534;-66
2022/08/17 10:30:56;;;;;;;;;;;24.50;99.90;;;;;;5032038;28;19971;-67
2022/08/17 10:33:46;;;;;;;;;;;24.60;99.90;;;;;;5032472;28;19978;-67
2022/08/17 10:36:18;;;;;;;;;;;24.60;99.90;;;;;;5032113;28;20550;-66
2022/08/17 10:38:47;;;;;;;;;;;24.60;99.90;;;;;;5032035;28;20383;-66
2022/08/17 10:41:24;;;;;;;;;;;24.50;99.90;;;;;;5041642;28;20088;-67
2022/08/17 10:43:57;;;;;;;;;;;24.50;99.90;;;;;;5051979;28;20149;-66
2022/08/17 10:46:50;;;;;;;;;;;24.50;99.90;;;;;;5051989;28;20426;-67
2022/08/17 10:49:23;;;;;;;;;;;24.50;99.90;;;;;;5051718;28;20008;-66
2022/08/17 10:51:53;;;;;;;;;;;24.50;99.90;;;;;;5051727;28;20414;-66
2022/08/17 10:54:36;;;;;;;;;;;24.40;99.90;;;;;;5051950;28;20911;-67
2022/08/17 10:57:27;;;;;;;;;;;24.40;99.90;;;;;;5050102;28;20393;-66
2022/08/17 10:59:57;;;;;;;;;;;24.40;99.90;;;;;;5051373;28;20692;-66
2022/08/17 11:02:26;;;;;;;;;;;24.40;99.90;;;;;;5051745;28;20753;-66
2022/08/17 11:05:01;;;;;;;;;;;24.30;99.90;;;;;;5051824;28;20564;-66
2022/08/17 11:07:37;;;;;;;;;;;24.20;99.90;;;;;;5051184;28;20644;-66
2022/08/17 11:10:15;;;;;;;;;;;24.10;99.90;;;;;;5051533;28;20027;-67
2022/08/17 11:12:48;;;;;;;;;;;24.10;99.90;;;;;;5049957;28;20494;-66
2022/08/17 11:15:26;;;;;;;;;;;24.10;99.90;;;;;;5051847;28;19970;-66
2022/08/17 11:18:07;;;;;;;;;;;24.10;99.90;;;;;;5051479;28;19974;-66
2022/08/17 11:21:01;;;;;;;;;;;24.10;99.90;;;;;;5051516;28;19997;-66
2022/08/17 11:23:41;;;;;;;;;;;24.10;99.90;;;;;;5051730;28;20077;-66
2022/08/17 11:26:19;;;;;;;;;;;24.30;99.90;;;;;;5045866;28;20027;-66
2022/08/17 11:28:49;;;;;;;;;;;24.90;99.90;;;;;;5031232;28;20720;-66
2022/08/17 11:31:29;;;;;;;;;;;25.50;99.90;;;;;;5031407;28;20286;-66
2022/08/17 11:34:13;;;;;;;;;;;26.10;99.90;;;;;;5031717;28;20742;-66
2022/08/17 11:36:52;;;;;;;;;;;26.60;99.90;;;;;;5031511;28;20080;-67
2022/08/17 11:39:32;;;;;;;;;;;26.80;99.90;;;;;;5031427;28;20235;-66
2022/08/17 11:42:04;;;;;;;;;;;27.40;99.90;;;;;;5039118;28;20144;-66
2022/08/17 11:44:36;;;;;;;;;;;27.90;99.90;;;;;;5051346;28;25141;-66
2022/08/17 11:52:50;;;;;;;;;;;28.70;99.90;;;;;;5051467;28;20824;-64
2022/08/17 11:55:37;;;;;;;;;;;28.40;99.90;;;;;;5051375;28;20184;-64
2022/08/17 11:58:26;;;;;;;;;;;28.50;99.80;;;;;;5031564;28;25119;-64
2022/08/17 12:00:56;;;;;;;;;;;28.70;99.90;;;;;;5031129;28;20118;-64
2022/08/17 12:03:42;;;;;;;;;;;28.90;99.50;;;;;;5031310;28;20220;-64
2022/08/17 12:06:30;;;;;;;;;;;29.00;98.90;;;;;;5031196;28;20199;-64
2022/08/17 12:09:01;;;;;;;;;;;28.90;99.20;;;;;;5030913;28;25069;-63
2022/08/17 12:11:33;;;;;;;;;;;29.00;98.60;;;;;;5032314;28;20078;-64
2022/08/17 12:14:25;;;;;;;;;;;29.10;98.30;;;;;;5041811;28;20482;-64
2022/08/17 12:17:14;;;;;;;;;;;28.90;98.10;;;;;;5031103;28;20143;-67
2022/08/17 12:20:11;;;;;;;;;;;28.60;98.40;;;;;;5031446;28;25126;-64
2022/08/17 12:22:43;;;;;;;;;;;28.50;97.50;;;;;;5034932;28;20136;-64
2022/08/17 12:25:13;;;;;;;;;;;28.50;97.70;;;;;;5034579;28;20236;-63
2022/08/17 12:27:45;;;;;;;;;;;28.80;97.20;;;;;;5034319;28;20745;-64
2022/08/17 12:30:32;;;;;;;;;;;29.00;96.60;;;;;;5034297;28;20977;-64
2022/08/17 12:33:00;;;;;;;;;;;29.20;96.30;;;;;;5035365;28;20251;-64
2022/08/17 12:35:34;;;;;;;;;;;29.10;95.80;;;;;;5034431;28;20480;-63
2022/08/17 12:38:05;;;;;;;;;;;29.20;95.70;;;;;;5034177;28;20716;-63
2022/08/17 12:40:53;;;;;;;;;;;29.30;95.60;;;;;;5033942;28;20487;-64
2022/08/17 12:43:26;;;;;;;;;;;29.20;95.40;;;;;;5034904;28;25076;-64
2022/08/17 12:45:55;;;;;;;;;;;29.20;95.70;;;;;;5034337;28;20974;-63
2022/08/17 12:48:24;;;;;;;;;;;29.20;96.40;;;;;;5033745;28;20150;-63
2022/08/17 12:50:59;;;;;;;;;;;28.80;96.00;;;;;;5033925;28;25087;-64
2022/08/17 12:53:28;;;;;;;;;;;28.80;96.50;;;;;;5034269;28;20748;-64
2022/08/17 12:55:57;;;;;;;;;;;29.10;96.30;;;;;;5034039;28;20383;-64
2022/08/17 12:58:28;;;;;;;;;;;29.30;96.40;;;;;;5049047;28;20694;-64
2022/08/17 13:00:58;;;;;;;;;;;29.60;96.30;;;;;;5053818;28;20478;-64
2022/08/17 13:03:30;;;;;;;;;;;29.80;96.30;;;;;;5053979;28;20301;-63
2022/08/17 13:06:06;;;;;;;;;;;30.10;96.20;;;;;;5054012;28;20687;-64
2022/08/17 13:08:35;;;;;;;;;;;30.00;96.20;;;;;;5053431;28;25070;-64
2022/08/17 13:11:04;;;;;;;;;;;30.20;96.20;;;;;;5038871;28;20293;-64
2022/08/17 13:13:33;;;;;;;;;;;30.10;95.80;;;;;;5033682;28;20315;-63
2022/08/17 13:16:02;;;;;;;;;;;30.20;96.10;;;;;;5033671;28;20502;-64
2022/08/17 13:18:40;;;;;;;;;;;30.30;95.60;;;;;;5033246;28;25121;-66
2022/08/17 13:21:17;;;;;;;;;;;30.40;95.90;;;;;;5033405;28;20235;-67
2022/08/17 13:23:54;;;;;;;;;;;30.70;96.30;;;;;;5033837;28;20371;-67
2022/08/17 13:26:26;;;;;;;;;;;30.80;95.40;;;;;;5033602;28;25049;-64
2022/08/17 13:28:54;;;;;;;;;;;30.80;95.30;;;;;;5033343;28;20572;-64
2022/08/17 13:31:23;;;;;;;;;;;31.00;95.10;;;;;;5032568;28;20592;-64
2022/08/17 13:33:51;;;;;;;;;;;30.80;95.00;;;;;;5033399;28;20267;-64
2022/08/17 13:36:30;;;;;;;;;;;30.30;95.40;;;;;;5033231;28;20709;-64
2022/08/17 13:39:07;;;;;;;;;;;30.10;95.70;;;;;;5033054;28;20325;-64
2022/08/17 13:41:36;;;;;;;;;;;30.60;95.60;;;;;;5051502;28;20707;-64
2022/08/17 13:44:19;;;;;;;;;;;31.00;94.90;;;;;;5053310;28;20224;-64
2022/08/17 13:46:51;;;;;;;;;;;31.50;94.30;;;;;;5053264;28;20143;-67
2022/08/17 13:49:42;;;;;;;;;;;31.60;94.10;;;;;;5054226;28;20188;-66
2022/08/17 13:52:37;;;;;;;;;;;31.50;93.90;;;;;;5056936;28;20772;-70
2022/08/17 13:55:17;;;;;;;;;;;31.90;93.70;;;;;;5056597;28;20173;-66
2022/08/17 13:57:48;;;;;;;;;;;32.70;93.00;;;;;;5041127;28;25075;-66
2022/08/17 14:00:29;;;;;;;;;;;33.00;92.30;;;;;;5036100;28;20074;-66
2022/08/17 14:02:58;;;;;;;;;;;32.80;92.30;;;;;;5036245;28;20313;-66
2022/08/17 14:05:26;;;;;;;;;;;32.40;92.20;;;;;;5035233;28;21060;-66
2022/08/17 14:07:56;;;;;;;;;;;32.10;92.10;;;;;;5037290;28;20324;-66
2022/08/17 14:10:25;;;;;;;;;;;31.90;92.70;;;;;;5036908;28;20140;-66
2022/08/17 14:12:53;;;;;;;;;;;31.90;91.80;;;;;;5052105;28;20775;-66
2022/08/17 14:15:22;;;;;;;;;;;32.30;92.10;;;;;;5056671;28;20230;-66
2022/08/17 14:18:09;;;;;;;;;;;32.40;91.40;;;;;;5055618;28;20190;-66
2022/08/17 14:20:39;;;;;;;;;;;32.60;91.40;;;;;;5043689;28;25151;-66
2022/08/17 14:23:08;;;;;;;;;;;33.20;91.20;;;;;;5036006;28;20116;-66
2022/08/17 14:25:36;;;;;;;;;;;33.90;89.10;;;;;;5036623;28;20189;-67
2022/08/17 14:28:06;;;;;;;;;;;33.60;89.80;;;;;;5037091;28;20578;-66
2022/08/17 14:30:35;;;;;;;;;;;33.70;89.20;;;;;;5036259;28;20244;-66
2022/08/17 14:33:04;;;;;;;;;;;33.80;89.50;;;;;;5048279;28;25063;-66
2022/08/17 14:35:33;;;;;;;;;;;34.20;89.00;;;;;;5035620;28;20389;-66
2022/08/17 14:38:01;;;;;;;;;;;34.30;87.10;;;;;;5034279;28;20692;-68
2022/08/17 14:40:31;;;;;;;;;;;34.70;86.40;;;;;;5034805;28;20262;-66
2022/08/17 14:43:00;;;;;;;;;;;34.60;86.30;;;;;;5035317;28;25115;-66
2022/08/17 14:45:27;;;;;;;;;;;34.60;86.90;;;;;;5039974;28;20108;-67
2022/08/17 14:48:01;;;;;;;;;;;34.50;85.60;;;;;;5054066;28;20409;-67
2022/08/17 14:50:29;;;;;;;;;;;34.60;84.70;;;;;;5053513;28;20447;-66
2022/08/17 14:52:58;;;;;;;;;;;34.50;84.50;;;;;;5053982;28;20220;-66
2022/08/17 14:55:28;;;;;;;;;;;34.30;84.90;;;;;;5054552;28;25077;-66
2022/08/17 14:57:57;;;;;;;;;;;34.00;84.00;;;;;;5055375;28;20790;-66
2022/08/17 15:00:25;;;;;;;;;;;34.00;83.70;;;;;;5012853;28;25145;-66
2022/08/17 15:02:54;;;;;;;;;;;34.00;83.60;;;;;;5016049;28;20611;-67
2022/08/17 15:05:24;;;;;;;;;;;34.20;83.40;;;;;;5015773;28;20471;-67
2022/08/17 15:07:53;;;;;;;;;;;34.30;82.70;;;;;;5017288;28;25066;-66
2022/08/17 15:10:21;;;;;;;;;;;34.10;82.90;;;;;;5015666;28;20208;-66
2022/08/17 15:12:49;;;;;;;;;;;34.10;82.70;;;;;;5016523;28;20333;-66
2022/08/17 15:15:18;;;;;;;;;;;33.70;81.20;;;;;;5015791;28;20905;-66
2022/08/17 15:17:45;;;;;;;;;;;33.80;81.90;;;;;;5017424;28;20109;-66